sensor_id;sensor_type;location;lat;lon;timestamp;P1;durP1;ratioP1;P2;durP2;ratioP2
2129;SDS011;1071;52.544;13.374;2024-03-02T00:00:53;47.42;;;37.40;;
2129;SDS011;1071;52.544;13.374;2024-03-02T00:03:20;52.13;;;40.97;;
2129;SDS011;1071;52.544;13.374;2024-03-02T00:05:50;50.50;;;39.78;;
2129;SDS011;1071;52.544;13.374;2024-03-02T00:08:22;52.95;;;40.20;;
2129;SDS011;1071;52.544;13.374;2024-03-02T00:10:51;48.70;;;39.50;;
2129;SDS011;1071;52.544;13.374;2024-03-02T00:13:23;48.13;;;39.80;;
2129;SDS011;1071;52.544;13.374;2024-03-02T00:15:52;48.58;;;39.05;;
2129;SDS011;1071;52.544;13.374;2024-03-02T00:18:21;45.20;;;37.08;;
2129;SDS011;1071;52.544;13.374;2024-03-02T00:20:52;42.90;;;36.10;;
2129;SDS011;1071;52.544;13.374;2024-03-02T00:23:21;51.28;;;40.20;;
2129;SDS011;1071;52.544;13.374;2024-03-02T00:25:49;53.72;;;41.58;;
2129;SDS011;1071;52.544;13.374;2024-03-02T00:28:19;53.20;;;40.53;;
2129;SDS011;1071;52.544;13.374;2024-03-02T00:30:58;51.35;;;38.90;;
2129;SDS011;1071;52.544;13.374;2024-03-02T00:33:26;50.75;;;39.47;;
2129;SDS011;1071;52.544;13.374;2024-03-02T00:35:56;43.03;;;36.47;;
2129;SDS011;1071;52.544;13.374;2024-03-02T00:38:24;48.00;;;36.28;;
2129;SDS011;1071;52.544;13.374;2024-03-02T00:40:54;51.80;;;42.15;;
2129;SDS011;1071;52.544;13.374;2024-03-02T00:43:38;50.53;;;41.55;;
2129;SDS011;1071;52.544;13.374;2024-03-02T00:46:10;50.55;;;40.55;;
2129;SDS011;1071;52.544;13.374;2024-03-02T00:48:38;49.53;;;40.50;;
2129;SDS011;1071;52.544;13.374;2024-03-02T00:51:11;45.78;;;38.28;;
2129;SDS011;1071;52.544;13.374;2024-03-02T00:53:38;46.78;;;38.80;;
2129;SDS011;1071;52.544;13.374;2024-03-02T00:56:06;47.55;;;38.53;;
2129;SDS011;1071;52.544;13.374;2024-03-02T00:58:37;46.70;;;38.80;;
2129;SDS011;1071;52.544;13.374;2024-03-02T01:01:04;51.97;;;40.28;;
2129;SDS011;1071;52.544;13.374;2024-03-02T01:03:37;52.80;;;39.30;;
2129;SDS011;1071;52.544;13.374;2024-03-02T01:06:06;49.08;;;39.30;;
2129;SDS011;1071;52.544;13.374;2024-03-02T01:08:36;51.58;;;38.67;;
2129;SDS011;1071;52.544;13.374;2024-03-02T01:11:07;53.22;;;40.42;;
2129;SDS011;1071;52.544;13.374;2024-03-02T01:13:34;52.97;;;39.30;;
2129;SDS011;1071;52.544;13.374;2024-03-02T01:16:02;56.88;;;42.45;;
2129;SDS011;1071;52.544;13.374;2024-03-02T01:18:29;51.20;;;40.95;;
2129;SDS011;1071;52.544;13.374;2024-03-02T01:20:58;52.10;;;41.78;;
2129;SDS011;1071;52.544;13.374;2024-03-02T01:23:26;60.47;;;48.22;;
2129;SDS011;1071;52.544;13.374;2024-03-02T01:26:18;63.75;;;52.58;;
2129;SDS011;1071;52.544;13.374;2024-03-02T01:28:46;58.08;;;48.22;;
2129;SDS011;1071;52.544;13.374;2024-03-02T01:31:13;55.20;;;49.28;;
2129;SDS011;1071;52.544;13.374;2024-03-02T01:33:40;60.78;;;49.20;;
2129;SDS011;1071;52.544;13.374;2024-03-02T01:36:09;58.35;;;47.67;;
2129;SDS011;1071;52.544;13.374;2024-03-02T01:38:36;70.47;;;51.63;;
2129;SDS011;1071;52.544;13.374;2024-03-02T01:41:03;57.20;;;47.40;;
2129;SDS011;1071;52.544;13.374;2024-03-02T01:43:30;65.97;;;51.83;;
2129;SDS011;1071;52.544;13.374;2024-03-02T01:45:57;57.67;;;49.13;;
2129;SDS011;1071;52.544;13.374;2024-03-02T01:48:24;63.70;;;52.10;;
2129;SDS011;1071;52.544;13.374;2024-03-02T01:51:01;58.28;;;49.78;;
2129;SDS011;1071;52.544;13.374;2024-03-02T01:53:35;55.15;;;44.17;;
2129;SDS011;1071;52.544;13.374;2024-03-02T01:56:02;62.42;;;49.15;;
2129;SDS011;1071;52.544;13.374;2024-03-02T01:58:29;60.15;;;47.67;;
2129;SDS011;1071;52.544;13.374;2024-03-02T02:00:56;56.97;;;46.55;;
2129;SDS011;1071;52.544;13.374;2024-03-02T02:03:23;56.47;;;47.88;;
2129;SDS011;1071;52.544;13.374;2024-03-02T02:05:50;63.42;;;52.65;;
2129;SDS011;1071;52.544;13.374;2024-03-02T02:08:17;67.40;;;55.05;;
2129;SDS011;1071;52.544;13.374;2024-03-02T02:10:46;69.18;;;54.75;;
2129;SDS011;1071;52.544;13.374;2024-03-02T02:13:13;70.28;;;57.38;;
2129;SDS011;1071;52.544;13.374;2024-03-02T02:15:40;60.35;;;49.72;;
2129;SDS011;1071;52.544;13.374;2024-03-02T02:18:07;63.33;;;52.40;;
2129;SDS011;1071;52.544;13.374;2024-03-02T02:20:34;60.30;;;51.90;;
2129;SDS011;1071;52.544;13.374;2024-03-02T02:23:04;61.15;;;51.92;;
2129;SDS011;1071;52.544;13.374;2024-03-02T02:25:33;63.83;;;50.88;;
2129;SDS011;1071;52.544;13.374;2024-03-02T02:28:03;66.07;;;54.38;;
2129;SDS011;1071;52.544;13.374;2024-03-02T02:30:33;58.83;;;49.15;;
2129;SDS011;1071;52.544;13.374;2024-03-02T02:33:00;66.75;;;50.65;;
2129;SDS011;1071;52.544;13.374;2024-03-02T02:35:27;54.75;;;46.72;;
2129;SDS011;1071;52.544;13.374;2024-03-02T02:37:54;53.45;;;45.40;;
2129;SDS011;1071;52.544;13.374;2024-03-02T02:40:25;55.03;;;46.55;;
2129;SDS011;1071;52.544;13.374;2024-03-02T02:42:52;53.78;;;44.72;;
2129;SDS011;1071;52.544;13.374;2024-03-02T02:45:19;53.42;;;46.15;;
2129;SDS011;1071;52.544;13.374;2024-03-02T02:47:46;56.40;;;44.42;;
2129;SDS011;1071;52.544;13.374;2024-03-02T02:50:13;53.92;;;42.78;;
2129;SDS011;1071;52.544;13.374;2024-03-02T02:52:40;49.75;;;44.30;;
2129;SDS011;1071;52.544;13.374;2024-03-02T02:55:09;48.03;;;40.67;;
2129;SDS011;1071;52.544;13.374;2024-03-02T02:57:39;46.08;;;40.90;;
2129;SDS011;1071;52.544;13.374;2024-03-02T03:00:07;48.92;;;40.03;;
2129;SDS011;1071;52.544;13.374;2024-03-02T03:02:39;52.13;;;42.70;;
2129;SDS011;1071;52.544;13.374;2024-03-02T03:05:09;51.30;;;40.90;;
2129;SDS011;1071;52.544;13.374;2024-03-02T03:07:39;52.33;;;42.28;;
2129;SDS011;1071;52.544;13.374;2024-03-02T03:10:16;49.38;;;42.22;;
2129;SDS011;1071;52.544;13.374;2024-03-02T03:12:45;48.67;;;39.15;;
2129;SDS011;1071;52.544;13.374;2024-03-02T03:15:14;53.35;;;40.35;;
2129;SDS011;1071;52.544;13.374;2024-03-02T03:17:41;49.88;;;40.90;;
2129;SDS011;1071;52.544;13.374;2024-03-02T03:20:08;53.08;;;41.00;;
2129;SDS011;1071;52.544;13.374;2024-03-02T03:22:36;45.15;;;37.85;;
2129;SDS011;1071;52.544;13.374;2024-03-02T03:25:03;47.13;;;38.08;;
2129;SDS011;1071;52.544;13.374;2024-03-02T03:27:33;49.15;;;39.95;;
2129;SDS011;1071;52.544;13.374;2024-03-02T03:30:01;48.95;;;40.00;;
2129;SDS011;1071;52.544;13.374;2024-03-02T03:32:28;44.28;;;38.83;;
2129;SDS011;1071;52.544;13.374;2024-03-02T03:34:55;52.58;;;40.85;;
2129;SDS011;1071;52.544;13.374;2024-03-02T03:37:22;45.90;;;39.55;;
2129;SDS011;1071;52.544;13.374;2024-03-02T03:39:51;46.47;;;39.35;;
2129;SDS011;1071;52.544;13.374;2024-03-02T03:42:20;45.65;;;37.75;;
2129;SDS011;1071;52.544;13.374;2024-03-02T03:44:47;46.22;;;38.42;;
2129;SDS011;1071;52.544;13.374;2024-03-02T03:47:17;46.15;;;40.25;;
2129;SDS011;1071;52.544;13.374;2024-03-02T03:49:45;48.03;;;39.95;;
2129;SDS011;1071;52.544;13.374;2024-03-02T03:52:12;45.28;;;38.38;;
2129;SDS011;1071;52.544;13.374;2024-03-02T03:54:39;44.63;;;39.20;;
2129;SDS011;1071;52.544;13.374;2024-03-02T03:57:08;40.30;;;35.45;;
2129;SDS011;1071;52.544;13.374;2024-03-02T03:59:35;46.75;;;40.30;;
2129;SDS011;1071;52.544;13.374;2024-03-02T04:02:02;45.45;;;38.92;;
2129;SDS011;1071;52.544;13.374;2024-03-02T04:04:31;42.40;;;35.38;;
2129;SDS011;1071;52.544;13.374;2024-03-02T04:06:58;46.13;;;38.20;;
2129;SDS011;1071;52.544;13.374;2024-03-02T04:09:25;42.33;;;34.85;;
2129;SDS011;1071;52.544;13.374;2024-03-02T04:11:52;42.45;;;35.67;;
2129;SDS011;1071;52.544;13.374;2024-03-02T04:14:19;45.83;;;36.60;;
2129;SDS011;1071;52.544;13.374;2024-03-02T04:16:46;44.67;;;37.67;;
2129;SDS011;1071;52.544;13.374;2024-03-02T04:19:15;45.15;;;37.10;;
2129;SDS011;1071;52.544;13.374;2024-03-02T04:21:43;40.63;;;35.45;;
2129;SDS011;1071;52.544;13.374;2024-03-02T04:24:10;41.75;;;32.38;;
2129;SDS011;1071;52.544;13.374;2024-03-02T04:26:37;45.15;;;35.65;;
2129;SDS011;1071;52.544;13.374;2024-03-02T04:29:04;43.28;;;36.15;;
2129;SDS011;1071;52.544;13.374;2024-03-02T04:31:31;38.97;;;34.78;;
2129;SDS011;1071;52.544;13.374;2024-03-02T04:33:58;46.20;;;36.28;;
2129;SDS011;1071;52.544;13.374;2024-03-02T04:36:27;41.95;;;35.28;;
2129;SDS011;1071;52.544;13.374;2024-03-02T04:38:56;44.92;;;34.67;;
2129;SDS011;1071;52.544;13.374;2024-03-02T04:41:23;35.95;;;31.25;;
2129;SDS011;1071;52.544;13.374;2024-03-02T04:43:51;39.58;;;33.85;;
2129;SDS011;1071;52.544;13.374;2024-03-02T04:46:18;39.75;;;32.13;;
2129;SDS011;1071;52.544;13.374;2024-03-02T04:48:45;40.13;;;33.88;;
2129;SDS011;1071;52.544;13.374;2024-03-02T04:51:13;42.85;;;34.60;;
2129;SDS011;1071;52.544;13.374;2024-03-02T04:53:40;35.10;;;30.65;;
2129;SDS011;1071;52.544;13.374;2024-03-02T04:56:08;43.67;;;35.00;;
2129;SDS011;1071;52.544;13.374;2024-03-02T04:58:49;42.13;;;35.50;;
2129;SDS011;1071;52.544;13.374;2024-03-02T05:01:16;35.83;;;31.38;;
2129;SDS011;1071;52.544;13.374;2024-03-02T05:03:43;39.72;;;33.97;;
2129;SDS011;1071;52.544;13.374;2024-03-02T05:06:13;36.70;;;32.47;;
2129;SDS011;1071;52.544;13.374;2024-03-02T05:08:40;36.53;;;31.42;;
2129;SDS011;1071;52.544;13.374;2024-03-02T05:11:08;44.25;;;34.47;;
2129;SDS011;1071;52.544;13.374;2024-03-02T05:13:52;35.50;;;30.30;;
2129;SDS011;1071;52.544;13.374;2024-03-02T05:16:19;36.60;;;32.53;;
2129;SDS011;1071;52.544;13.374;2024-03-02T05:18:46;40.20;;;31.45;;
2129;SDS011;1071;52.544;13.374;2024-03-02T05:21:13;36.33;;;31.27;;
2129;SDS011;1071;52.544;13.374;2024-03-02T05:23:40;35.60;;;30.80;;
2129;SDS011;1071;52.544;13.374;2024-03-02T05:26:07;35.47;;;31.70;;
2129;SDS011;1071;52.544;13.374;2024-03-02T05:28:37;35.95;;;29.73;;
2129;SDS011;1071;52.544;13.374;2024-03-02T05:31:04;37.38;;;30.23;;
2129;SDS011;1071;52.544;13.374;2024-03-02T05:33:37;31.48;;;28.33;;
2129;SDS011;1071;52.544;13.374;2024-03-02T05:36:04;35.85;;;32.05;;
2129;SDS011;1071;52.544;13.374;2024-03-02T05:38:31;38.17;;;33.90;;
2129;SDS011;1071;52.544;13.374;2024-03-02T05:40:58;36.42;;;30.85;;
2129;SDS011;1071;52.544;13.374;2024-03-02T05:43:28;37.05;;;32.03;;
2129;SDS011;1071;52.544;13.374;2024-03-02T05:45:55;38.60;;;32.33;;
2129;SDS011;1071;52.544;13.374;2024-03-02T05:48:22;35.00;;;31.30;;
2129;SDS011;1071;52.544;13.374;2024-03-02T05:50:49;42.60;;;36.22;;
2129;SDS011;1071;52.544;13.374;2024-03-02T05:53:16;40.80;;;35.07;;
2129;SDS011;1071;52.544;13.374;2024-03-02T05:55:43;45.38;;;36.33;;
2129;SDS011;1071;52.544;13.374;2024-03-02T05:58:10;40.05;;;32.92;;
2129;SDS011;1071;52.544;13.374;2024-03-02T06:00:52;43.22;;;35.67;;
2129;SDS011;1071;52.544;13.374;2024-03-02T06:03:19;47.63;;;37.53;;
2129;SDS011;1071;52.544;13.374;2024-03-02T06:05:47;47.15;;;37.50;;
2129;SDS011;1071;52.544;13.374;2024-03-02T06:08:14;42.13;;;36.10;;
2129;SDS011;1071;52.544;13.374;2024-03-02T06:10:41;49.95;;;38.15;;
2129;SDS011;1071;52.544;13.374;2024-03-02T06:13:08;47.90;;;39.13;;
2129;SDS011;1071;52.544;13.374;2024-03-02T06:15:35;43.45;;;37.20;;
2129;SDS011;1071;52.544;13.374;2024-03-02T06:18:04;44.38;;;36.80;;
2129;SDS011;1071;52.544;13.374;2024-03-02T06:20:33;41.83;;;36.10;;
2129;SDS011;1071;52.544;13.374;2024-03-02T06:23:00;42.60;;;36.55;;
2129;SDS011;1071;52.544;13.374;2024-03-02T06:25:27;42.67;;;36.38;;
2129;SDS011;1071;52.544;13.374;2024-03-02T06:27:54;40.75;;;33.97;;
2129;SDS011;1071;52.544;13.374;2024-03-02T06:30:21;44.33;;;34.92;;
2129;SDS011;1071;52.544;13.374;2024-03-02T06:32:48;39.08;;;34.97;;
2129;SDS011;1071;52.544;13.374;2024-03-02T06:35:16;44.03;;;36.20;;
2129;SDS011;1071;52.544;13.374;2024-03-02T06:37:45;44.25;;;36.42;;
2129;SDS011;1071;52.544;13.374;2024-03-02T06:40:16;43.67;;;35.92;;
2129;SDS011;1071;52.544;13.374;2024-03-02T06:42:43;47.03;;;38.03;;
2129;SDS011;1071;52.544;13.374;2024-03-02T06:45:10;41.97;;;34.55;;
2129;SDS011;1071;52.544;13.374;2024-03-02T06:47:37;41.20;;;34.45;;
2129;SDS011;1071;52.544;13.374;2024-03-02T06:50:07;50.58;;;36.97;;
2129;SDS011;1071;52.544;13.374;2024-03-02T06:52:36;40.20;;;33.72;;
2129;SDS011;1071;52.544;13.374;2024-03-02T06:55:04;46.05;;;38.30;;
2129;SDS011;1071;52.544;13.374;2024-03-02T06:57:31;44.97;;;34.25;;
2129;SDS011;1071;52.544;13.374;2024-03-02T06:59:58;45.47;;;36.25;;
2129;SDS011;1071;52.544;13.374;2024-03-02T07:02:25;52.65;;;38.83;;
2129;SDS011;1071;52.544;13.374;2024-03-02T07:04:53;48.45;;;37.60;;
2129;SDS011;1071;52.544;13.374;2024-03-02T07:07:20;45.08;;;35.40;;
2129;SDS011;1071;52.544;13.374;2024-03-02T07:09:48;40.10;;;33.35;;
2129;SDS011;1071;52.544;13.374;2024-03-02T07:12:15;50.25;;;38.13;;
2129;SDS011;1071;52.544;13.374;2024-03-02T07:14:42;49.00;;;39.88;;
2129;SDS011;1071;52.544;13.374;2024-03-02T07:17:38;48.70;;;40.08;;
2129;SDS011;1071;52.544;13.374;2024-03-02T07:20:05;44.47;;;34.28;;
2129;SDS011;1071;52.544;13.374;2024-03-02T07:22:33;47.90;;;36.85;;
2129;SDS011;1071;52.544;13.374;2024-03-02T07:25:04;42.42;;;34.63;;
2129;SDS011;1071;52.544;13.374;2024-03-02T07:27:32;43.17;;;36.90;;
2129;SDS011;1071;52.544;13.374;2024-03-02T07:30:00;49.45;;;39.15;;
2129;SDS011;1071;52.544;13.374;2024-03-02T07:32:27;42.92;;;36.33;;
2129;SDS011;1071;52.544;13.374;2024-03-02T07:34:54;46.67;;;39.35;;
2129;SDS011;1071;52.544;13.374;2024-03-02T07:37:26;41.63;;;34.83;;
2129;SDS011;1071;52.544;13.374;2024-03-02T07:39:54;49.40;;;40.20;;
2129;SDS011;1071;52.544;13.374;2024-03-02T07:42:22;52.42;;;39.47;;
2129;SDS011;1071;52.544;13.374;2024-03-02T07:44:51;46.53;;;39.00;;
2129;SDS011;1071;52.544;13.374;2024-03-02T07:47:19;43.35;;;35.97;;
2129;SDS011;1071;52.544;13.374;2024-03-02T07:49:46;50.80;;;36.42;;
2129;SDS011;1071;52.544;13.374;2024-03-02T07:52:13;48.67;;;39.90;;
2129;SDS011;1071;52.544;13.374;2024-03-02T07:54:40;46.17;;;38.30;;
2129;SDS011;1071;52.544;13.374;2024-03-02T07:57:07;42.03;;;36.15;;
2129;SDS011;1071;52.544;13.374;2024-03-02T07:59:39;47.53;;;38.53;;
2129;SDS011;1071;52.544;13.374;2024-03-02T08:02:06;43.83;;;39.08;;
2129;SDS011;1071;52.544;13.374;2024-03-02T08:04:33;43.85;;;37.05;;
2129;SDS011;1071;52.544;13.374;2024-03-02T08:07:01;49.20;;;36.97;;
2129;SDS011;1071;52.544;13.374;2024-03-02T08:09:27;47.28;;;37.33;;
2129;SDS011;1071;52.544;13.374;2024-03-02T08:11:57;42.63;;;35.85;;
2129;SDS011;1071;52.544;13.374;2024-03-02T08:14:24;44.78;;;34.40;;
2129;SDS011;1071;52.544;13.374;2024-03-02T08:16:52;47.38;;;36.90;;
2129;SDS011;1071;52.544;13.374;2024-03-02T08:19:19;44.13;;;36.92;;
2129;SDS011;1071;52.544;13.374;2024-03-02T08:21:49;50.78;;;38.17;;
2129;SDS011;1071;52.544;13.374;2024-03-02T08:24:16;48.35;;;37.97;;
2129;SDS011;1071;52.544;13.374;2024-03-02T08:26:43;43.47;;;35.55;;
2129;SDS011;1071;52.544;13.374;2024-03-02T08:29:10;51.60;;;38.30;;
2129;SDS011;1071;52.544;13.374;2024-03-02T08:31:38;52.70;;;40.70;;
2129;SDS011;1071;52.544;13.374;2024-03-02T08:34:06;46.90;;;36.00;;
2129;SDS011;1071;52.544;13.374;2024-03-02T08:36:34;48.22;;;35.13;;
2129;SDS011;1071;52.544;13.374;2024-03-02T08:39:01;45.72;;;38.38;;
2129;SDS011;1071;52.544;13.374;2024-03-02T08:41:28;51.13;;;39.22;;
2129;SDS011;1071;52.544;13.374;2024-03-02T08:43:55;54.40;;;40.67;;
2129;SDS011;1071;52.544;13.374;2024-03-02T08:46:22;43.58;;;35.90;;
2129;SDS011;1071;52.544;13.374;2024-03-02T08:48:49;46.00;;;38.22;;
2129;SDS011;1071;52.544;13.374;2024-03-02T08:51:17;50.60;;;38.30;;
2129;SDS011;1071;52.544;13.374;2024-03-02T08:53:44;48.30;;;35.58;;
2129;SDS011;1071;52.544;13.374;2024-03-02T08:56:11;44.42;;;36.65;;
2129;SDS011;1071;52.544;13.374;2024-03-02T08:58:41;44.13;;;37.00;;
2129;SDS011;1071;52.544;13.374;2024-03-02T09:01:09;42.25;;;36.88;;
2129;SDS011;1071;52.544;13.374;2024-03-02T09:03:36;41.30;;;33.42;;
2129;SDS011;1071;52.544;13.374;2024-03-02T09:06:04;43.63;;;34.80;;
2129;SDS011;1071;52.544;13.374;2024-03-02T09:08:45;43.55;;;33.78;;
2129;SDS011;1071;52.544;13.374;2024-03-02T09:11:13;45.60;;;34.58;;
2129;SDS011;1071;52.544;13.374;2024-03-02T09:13:40;42.38;;;33.30;;
2129;SDS011;1071;52.544;13.374;2024-03-02T09:16:08;45.25;;;35.22;;
2129;SDS011;1071;52.544;13.374;2024-03-02T09:18:36;41.80;;;34.75;;
2129;SDS011;1071;52.544;13.374;2024-03-02T09:21:04;44.95;;;36.40;;
2129;SDS011;1071;52.544;13.374;2024-03-02T09:23:31;44.33;;;34.90;;
2129;SDS011;1071;52.544;13.374;2024-03-02T09:26:00;44.20;;;33.42;;
2129;SDS011;1071;52.544;13.374;2024-03-02T09:28:28;45.78;;;35.78;;
2129;SDS011;1071;52.544;13.374;2024-03-02T09:30:55;41.90;;;35.08;;
2129;SDS011;1071;52.544;13.374;2024-03-02T09:33:22;43.92;;;33.80;;
2129;SDS011;1071;52.544;13.374;2024-03-02T09:35:49;40.10;;;32.05;;
2129;SDS011;1071;52.544;13.374;2024-03-02T09:38:16;46.08;;;35.08;;
2129;SDS011;1071;52.544;13.374;2024-03-02T09:40:43;41.38;;;35.33;;
2129;SDS011;1071;52.544;13.374;2024-03-02T09:43:12;42.53;;;33.17;;
2129;SDS011;1071;52.544;13.374;2024-03-02T09:45:40;42.88;;;33.50;;
2129;SDS011;1071;52.544;13.374;2024-03-02T09:48:07;47.75;;;35.72;;
2129;SDS011;1071;52.544;13.374;2024-03-02T09:50:34;41.67;;;35.22;;
2129;SDS011;1071;52.544;13.374;2024-03-02T09:53:06;42.58;;;33.47;;
2129;SDS011;1071;52.544;13.374;2024-03-02T09:55:35;41.88;;;34.22;;
2129;SDS011;1071;52.544;13.374;2024-03-02T09:58:08;39.20;;;32.35;;
2129;SDS011;1071;52.544;13.374;2024-03-02T10:00:39;46.08;;;35.53;;
2129;SDS011;1071;52.544;13.374;2024-03-02T10:03:09;39.10;;;34.25;;
2129;SDS011;1071;52.544;13.374;2024-03-02T10:05:38;43.78;;;32.92;;
2129;SDS011;1071;52.544;13.374;2024-03-02T10:08:06;36.67;;;30.25;;
2129;SDS011;1071;52.544;13.374;2024-03-02T10:10:36;38.47;;;32.03;;
2129;SDS011;1071;52.544;13.374;2024-03-02T10:13:11;39.30;;;31.98;;
2129;SDS011;1071;52.544;13.374;2024-03-02T10:15:44;41.75;;;31.90;;
2129;SDS011;1071;52.544;13.374;2024-03-02T10:18:12;35.88;;;29.20;;
2129;SDS011;1071;52.544;13.374;2024-03-02T10:20:59;40.00;;;30.83;;
2129;SDS011;1071;52.544;13.374;2024-03-02T10:23:40;35.80;;;28.90;;
2129;SDS011;1071;52.544;13.374;2024-03-02T10:26:08;36.05;;;31.75;;
2129;SDS011;1071;52.544;13.374;2024-03-02T10:28:45;35.10;;;29.07;;
2129;SDS011;1071;52.544;13.374;2024-03-02T10:31:14;34.83;;;28.90;;
2129;SDS011;1071;52.544;13.374;2024-03-02T10:33:42;36.35;;;29.67;;
2129;SDS011;1071;52.544;13.374;2024-03-02T10:36:09;34.83;;;29.27;;
2129;SDS011;1071;52.544;13.374;2024-03-02T10:38:36;30.53;;;26.63;;
2129;SDS011;1071;52.544;13.374;2024-03-02T10:41:03;28.03;;;25.07;;
2129;SDS011;1071;52.544;13.374;2024-03-02T10:43:31;32.20;;;27.27;;
2129;SDS011;1071;52.544;13.374;2024-03-02T10:45:58;38.73;;;27.77;;
2129;SDS011;1071;52.544;13.374;2024-03-02T10:48:27;35.07;;;27.67;;
2129;SDS011;1071;52.544;13.374;2024-03-02T10:50:56;31.93;;;26.37;;
2129;SDS011;1071;52.544;13.374;2024-03-02T10:53:26;32.73;;;24.77;;
2129;SDS011;1071;52.544;13.374;2024-03-02T10:55:55;34.45;;;29.63;;
2129;SDS011;1071;52.544;13.374;2024-03-02T10:58:27;32.30;;;28.70;;
2129;SDS011;1071;52.544;13.374;2024-03-02T11:00:59;29.50;;;25.30;;
2129;SDS011;1071;52.544;13.374;2024-03-02T11:03:30;33.20;;;25.70;;
2129;SDS011;1071;52.544;13.374;2024-03-02T11:06:02;31.17;;;27.40;;
2129;SDS011;1071;52.544;13.374;2024-03-02T11:08:32;29.58;;;26.42;;
2129;SDS011;1071;52.544;13.374;2024-03-02T11:11:02;29.13;;;26.03;;
2129;SDS011;1071;52.544;13.374;2024-03-02T11:13:34;29.37;;;26.27;;
2129;SDS011;1071;52.544;13.374;2024-03-02T11:16:03;28.10;;;25.10;;
2129;SDS011;1071;52.544;13.374;2024-03-02T11:18:34;30.53;;;25.33;;
2129;SDS011;1071;52.544;13.374;2024-03-02T11:21:01;27.10;;;24.13;;
2129;SDS011;1071;52.544;13.374;2024-03-02T11:23:32;24.57;;;21.70;;
2129;SDS011;1071;52.544;13.374;2024-03-02T11:26:16;25.60;;;22.83;;
2129;SDS011;1071;52.544;13.374;2024-03-02T11:28:44;24.17;;;21.67;;
2129;SDS011;1071;52.544;13.374;2024-03-02T11:31:11;26.07;;;23.37;;
2129;SDS011;1071;52.544;13.374;2024-03-02T11:33:40;28.97;;;20.93;;
2129;SDS011;1071;52.544;13.374;2024-03-02T11:36:08;23.33;;;19.80;;
2129;SDS011;1071;52.544;13.374;2024-03-02T11:38:35;27.23;;;22.73;;
2129;SDS011;1071;52.544;13.374;2024-03-02T11:41:06;23.30;;;19.73;;
2129;SDS011;1071;52.544;13.374;2024-03-02T11:43:37;25.97;;;22.60;;
2129;SDS011;1071;52.544;13.374;2024-03-02T11:46:05;23.60;;;21.10;;
2129;SDS011;1071;52.544;13.374;2024-03-02T11:48:34;24.30;;;21.70;;
2129;SDS011;1071;52.544;13.374;2024-03-02T11:51:04;25.60;;;22.40;;
2129;SDS011;1071;52.544;13.374;2024-03-02T11:53:31;22.33;;;18.60;;
2129;SDS011;1071;52.544;13.374;2024-03-02T11:56:02;24.23;;;20.53;;
2129;SDS011;1071;52.544;13.374;2024-03-02T11:58:30;23.80;;;20.23;;
2129;SDS011;1071;52.544;13.374;2024-03-02T12:00:58;27.67;;;22.90;;
2129;SDS011;1071;52.544;13.374;2024-03-02T12:03:25;21.37;;;19.17;;
2129;SDS011;1071;52.544;13.374;2024-03-02T12:05:54;25.20;;;20.40;;
2129;SDS011;1071;52.544;13.374;2024-03-02T12:08:22;25.50;;;22.20;;
2129;SDS011;1071;52.544;13.374;2024-03-02T12:10:55;21.03;;;18.90;;
2129;SDS011;1071;52.544;13.374;2024-03-02T12:13:23;22.47;;;19.47;;
2129;SDS011;1071;52.544;13.374;2024-03-02T12:15:52;24.40;;;20.00;;
2129;SDS011;1071;52.544;13.374;2024-03-02T12:18:24;22.27;;;19.83;;
2129;SDS011;1071;52.544;13.374;2024-03-02T12:20:51;27.80;;;21.27;;
2129;SDS011;1071;52.544;13.374;2024-03-02T12:23:23;23.97;;;20.47;;
2129;SDS011;1071;52.544;13.374;2024-03-02T12:25:51;20.43;;;18.13;;
2129;SDS011;1071;52.544;13.374;2024-03-02T12:28:18;23.63;;;19.97;;
2129;SDS011;1071;52.544;13.374;2024-03-02T12:30:47;25.37;;;20.13;;
2129;SDS011;1071;52.544;13.374;2024-03-02T12:33:25;22.90;;;19.37;;
2129;SDS011;1071;52.544;13.374;2024-03-02T12:35:54;24.33;;;18.40;;
2129;SDS011;1071;52.544;13.374;2024-03-02T12:38:24;25.73;;;20.30;;
2129;SDS011;1071;52.544;13.374;2024-03-02T12:40:54;21.27;;;18.90;;
2129;SDS011;1071;52.544;13.374;2024-03-02T12:43:22;19.70;;;17.70;;
2129;SDS011;1071;52.544;13.374;2024-03-02T12:45:50;21.47;;;19.07;;
2129;SDS011;1071;52.544;13.374;2024-03-02T12:48:20;25.47;;;20.23;;
2129;SDS011;1071;52.544;13.374;2024-03-02T12:50:48;21.87;;;18.57;;
2129;SDS011;1071;52.544;13.374;2024-03-02T12:53:15;25.80;;;23.10;;
2129;SDS011;1071;52.544;13.374;2024-03-02T12:55:44;23.23;;;20.40;;
2129;SDS011;1071;52.544;13.374;2024-03-02T12:58:16;24.53;;;20.13;;
2129;SDS011;1071;52.544;13.374;2024-03-02T13:00:43;24.23;;;21.63;;
2129;SDS011;1071;52.544;13.374;2024-03-02T13:03:15;20.00;;;17.90;;
2129;SDS011;1071;52.544;13.374;2024-03-02T13:05:51;18.90;;;16.20;;
2129;SDS011;1071;52.544;13.374;2024-03-02T13:08:19;24.90;;;22.30;;
2129;SDS011;1071;52.544;13.374;2024-03-02T13:10:48;23.20;;;20.43;;
2129;SDS011;1071;52.544;13.374;2024-03-02T13:13:15;21.43;;;19.03;;
2129;SDS011;1071;52.544;13.374;2024-03-02T13:15:42;26.30;;;20.73;;
2129;SDS011;1071;52.544;13.374;2024-03-02T13:18:10;20.43;;;18.33;;
2129;SDS011;1071;52.544;13.374;2024-03-02T13:20:40;25.50;;;18.90;;
2129;SDS011;1071;52.544;13.374;2024-03-02T13:23:10;23.20;;;20.43;;
2129;SDS011;1071;52.544;13.374;2024-03-02T13:25:38;21.40;;;18.90;;
2129;SDS011;1071;52.544;13.374;2024-03-02T13:28:09;22.87;;;20.37;;
2129;SDS011;1071;52.544;13.374;2024-03-02T13:30:36;23.13;;;18.90;;
2129;SDS011;1071;52.544;13.374;2024-03-02T13:33:06;18.33;;;16.53;;
2129;SDS011;1071;52.544;13.374;2024-03-02T13:35:35;20.27;;;18.17;;
2129;SDS011;1071;52.544;13.374;2024-03-02T13:38:02;18.87;;;16.83;;
2129;SDS011;1071;52.544;13.374;2024-03-02T13:40:29;18.17;;;15.93;;
2129;SDS011;1071;52.544;13.374;2024-03-02T13:43:00;16.67;;;15.07;;
2129;SDS011;1071;52.544;13.374;2024-03-02T13:45:29;21.07;;;18.23;;
2129;SDS011;1071;52.544;13.374;2024-03-02T13:47:56;20.43;;;17.10;;
2129;SDS011;1071;52.544;13.374;2024-03-02T13:50:23;21.50;;;18.63;;
2129;SDS011;1071;52.544;13.374;2024-03-02T13:52:50;19.17;;;16.83;;
2129;SDS011;1071;52.544;13.374;2024-03-02T13:55:17;18.13;;;16.13;;
2129;SDS011;1071;52.544;13.374;2024-03-02T13:57:46;18.53;;;16.50;;
2129;SDS011;1071;52.544;13.374;2024-03-02T14:00:15;20.07;;;17.97;;
2129;SDS011;1071;52.544;13.374;2024-03-02T14:02:44;18.47;;;16.30;;
2129;SDS011;1071;52.544;13.374;2024-03-02T14:05:15;19.07;;;16.77;;
2129;SDS011;1071;52.544;13.374;2024-03-02T14:07:43;16.63;;;14.50;;
2129;SDS011;1071;52.544;13.374;2024-03-02T14:10:10;19.70;;;16.63;;
2129;SDS011;1071;52.544;13.374;2024-03-02T14:12:37;17.07;;;15.27;;
2129;SDS011;1071;52.544;13.374;2024-03-02T14:15:05;19.17;;;16.87;;
2129;SDS011;1071;52.544;13.374;2024-03-02T14:17:33;16.50;;;15.00;;
2129;SDS011;1071;52.544;13.374;2024-03-02T14:20:04;14.90;;;13.40;;
2129;SDS011;1071;52.544;13.374;2024-03-02T14:22:33;14.47;;;12.97;;
2129;SDS011;1071;52.544;13.374;2024-03-02T14:25:04;17.17;;;15.37;;
2129;SDS011;1071;52.544;13.374;2024-03-02T14:27:32;15.80;;;14.23;;
2129;SDS011;1071;52.544;13.374;2024-03-02T14:30:00;13.40;;;12.00;;
2129;SDS011;1071;52.544;13.374;2024-03-02T14:32:27;12.90;;;11.60;;
2129;SDS011;1071;52.544;13.374;2024-03-02T14:34:55;12.00;;;10.80;;
2129;SDS011;1071;52.544;13.374;2024-03-02T14:37:24;13.00;;;11.60;;
2129;SDS011;1071;52.544;13.374;2024-03-02T14:39:54;11.87;;;10.67;;
2129;SDS011;1071;52.544;13.374;2024-03-02T14:42:23;13.67;;;12.30;;